sensor_id;sensor_type;location;lat;lon;timestamp;temperature;humidity
70271;SHT31;57680;54.292;18.598;2022-08-25T00:00:47;20.02;97.51
70271;SHT31;57680;54.292;18.598;2022-08-25T00:03:14;20.01;97.45
70271;SHT31;57680;54.292;18.598;2022-08-25T00:05:40;20.01;97.46
70271;SHT31;57680;54.292;18.598;2022-08-25T00:08:06;20.01;97.46
70271;SHT31;57680;54.292;18.598;2022-08-25T00:10:34;20.02;97.35
70271;SHT31;57680;54.292;18.598;2022-08-25T00:13:01;20.05;97.36
70271;SHT31;57680;54.292;18.598;2022-08-25T00:15:27;20.05;97.25
70271;SHT31;57680;54.292;18.598;2022-08-25T00:17:53;20.05;97.16
70271;SHT31;57680;54.292;18.598;2022-08-25T00:20:20;20.08;97.09
70271;SHT31;57680;54.292;18.598;2022-08-25T00:22:46;20.10;97.02
70271;SHT31;57680;54.292;18.598;2022-08-25T00:25:13;20.11;96.90
70271;SHT31;57680;54.292;18.598;2022-08-25T00:27:38;20.12;96.92
70271;SHT31;57680;54.292;18.598;2022-08-25T00:30:05;20.14;96.91
70271;SHT31;57680;54.292;18.598;2022-08-25T00:32:30;20.11;96.83
70271;SHT31;57680;54.292;18.598;2022-08-25T00:34:57;20.11;96.82
70271;SHT31;57680;54.292;18.598;2022-08-25T00:37:22;20.10;96.78
70271;SHT31;57680;54.292;18.598;2022-08-25T00:39:48;20.08;96.89
70271;SHT31;57680;54.292;18.598;2022-08-25T00:42:14;20.05;96.75
70271;SHT31;57680;54.292;18.598;2022-08-25T00:44:39;20.05;96.95
70271;SHT31;57680;54.292;18.598;2022-08-25T00:47:06;20.04;96.86
70271;SHT31;57680;54.292;18.598;2022-08-25T00:49:42;19.98;96.88
70271;SHT31;57680;54.292;18.598;2022-08-25T00:52:10;19.98;97.01
70271;SHT31;57680;54.292;18.598;2022-08-25T00:54:41;19.95;96.99
70271;SHT31;57680;54.292;18.598;2022-08-25T00:57:11;19.94;96.87
70271;SHT31;57680;54.292;18.598;2022-08-25T00:59:38;19.94;96.94
70271;SHT31;57680;54.292;18.598;2022-08-25T01:02:05;19.97;96.91
70271;SHT31;57680;54.292;18.598;2022-08-25T01:04:31;19.95;96.69
70271;SHT31;57680;54.292;18.598;2022-08-25T01:06:57;19.92;96.67
70271;SHT31;57680;54.292;18.598;2022-08-25T01:09:25;19.90;96.75
70271;SHT31;57680;54.292;18.598;2022-08-25T01:11:50;19.92;96.79
70271;SHT31;57680;54.292;18.598;2022-08-25T01:14:19;19.95;96.70
70271;SHT31;57680;54.292;18.598;2022-08-25T01:16:46;20.01;96.52
70271;SHT31;57680;54.292;18.598;2022-08-25T01:19:13;20.05;96.45
70271;SHT31;57680;54.292;18.598;2022-08-25T01:21:44;20.10;96.33
70271;SHT31;57680;54.292;18.598;2022-08-25T01:24:17;20.15;96.16
70271;SHT31;57680;54.292;18.598;2022-08-25T01:26:45;20.18;95.98
70271;SHT31;57680;54.292;18.598;2022-08-25T01:29:11;20.21;95.83
70271;SHT31;57680;54.292;18.598;2022-08-25T01:31:51;20.20;95.69
70271;SHT31;57680;54.292;18.598;2022-08-25T01:34:18;20.18;95.63
70271;SHT31;57680;54.292;18.598;2022-08-25T01:36:44;20.20;95.63
70271;SHT31;57680;54.292;18.598;2022-08-25T01:39:11;20.17;95.45
70271;SHT31;57680;54.292;18.598;2022-08-25T01:44:32;20.08;95.30
70271;SHT31;57680;54.292;18.598;2022-08-25T01:47:00;20.12;95.44
70271;SHT31;57680;54.292;18.598;2022-08-25T01:49:26;20.07;95.31
70271;SHT31;57680;54.292;18.598;2022-08-25T01:51:56;20.10;95.29
70271;SHT31;57680;54.292;18.598;2022-08-25T01:54:22;20.04;95.31
70271;SHT31;57680;54.292;18.598;2022-08-25T01:56:47;20.07;95.37
70271;SHT31;57680;54.292;18.598;2022-08-25T01:59:17;20.07;95.28
70271;SHT31;57680;54.292;18.598;2022-08-25T02:01:44;20.07;95.23
70271;SHT31;57680;54.292;18.598;2022-08-25T02:04:10;20.05;95.28
70271;SHT31;57680;54.292;18.598;2022-08-25T02:06:36;20.04;95.24
70271;SHT31;57680;54.292;18.598;2022-08-25T02:09:08;20.02;95.20
70271;SHT31;57680;54.292;18.598;2022-08-25T02:11:38;20.04;94.98
70271;SHT31;57680;54.292;18.598;2022-08-25T02:14:05;20.05;94.93
70271;SHT31;57680;54.292;18.598;2022-08-25T02:16:33;20.05;94.92
70271;SHT31;57680;54.292;18.598;2022-08-25T02:19:00;20.05;94.84
70271;SHT31;57680;54.292;18.598;2022-08-25T02:21:26;20.05;94.96
70271;SHT31;57680;54.292;18.598;2022-08-25T02:23:52;20.02;95.07
70271;SHT31;57680;54.292;18.598;2022-08-25T02:26:18;20.04;95.18
70271;SHT31;57680;54.292;18.598;2022-08-25T02:28:48;20.07;95.26
70271;SHT31;57680;54.292;18.598;2022-08-25T02:31:15;20.12;95.35
70271;SHT31;57680;54.292;18.598;2022-08-25T02:33:41;20.14;95.27
70271;SHT31;57680;54.292;18.598;2022-08-25T02:36:07;20.15;95.26
70271;SHT31;57680;54.292;18.598;2022-08-25T02:38:34;20.17;95.30
70271;SHT31;57680;54.292;18.598;2022-08-25T02:41:00;20.17;95.26
70271;SHT31;57680;54.292;18.598;2022-08-25T02:43:27;20.15;95.23
70271;SHT31;57680;54.292;18.598;2022-08-25T02:45:53;20.14;95.27
70271;SHT31;57680;54.292;18.598;2022-08-25T02:48:20;20.14;95.43
70271;SHT31;57680;54.292;18.598;2022-08-25T02:50:50;20.14;95.46
70271;SHT31;57680;54.292;18.598;2022-08-25T02:53:17;20.15;95.49
70271;SHT31;57680;54.292;18.598;2022-08-25T02:55:43;20.15;95.66
70271;SHT31;57680;54.292;18.598;2022-08-25T02:58:09;20.20;95.68
70271;SHT31;57680;54.292;18.598;2022-08-25T03:00:35;20.18;95.86
70271;SHT31;57680;54.292;18.598;2022-08-25T03:03:00;20.21;95.87
70271;SHT31;57680;54.292;18.598;2022-08-25T03:05:26;20.25;96.01
70271;SHT31;57680;54.292;18.598;2022-08-25T03:07:52;20.26;95.93
70271;SHT31;57680;54.292;18.598;2022-08-25T03:10:17;20.29;95.96
70271;SHT31;57680;54.292;18.598;2022-08-25T03:12:44;20.31;95.98
70271;SHT31;57680;54.292;18.598;2022-08-25T03:15:12;20.35;96.06
70271;SHT31;57680;54.292;18.598;2022-08-25T03:17:37;20.35;95.97
70271;SHT31;57680;54.292;18.598;2022-08-25T03:20:04;20.36;96.01
70271;SHT31;57680;54.292;18.598;2022-08-25T03:22:30;20.38;95.95
70271;SHT31;57680;54.292;18.598;2022-08-25T03:24:56;20.43;96.00
70271;SHT31;57680;54.292;18.598;2022-08-25T03:27:42;20.45;95.91
70271;SHT31;57680;54.292;18.598;2022-08-25T03:30:08;20.52;95.69
70271;SHT31;57680;54.292;18.598;2022-08-25T03:32:34;20.51;95.48
70271;SHT31;57680;54.292;18.598;2022-08-25T03:34:59;20.51;95.44
70271;SHT31;57680;54.292;18.598;2022-08-25T03:37:26;20.51;95.42
70271;SHT31;57680;54.292;18.598;2022-08-25T03:39:52;20.51;95.24
70271;SHT31;57680;54.292;18.598;2022-08-25T03:42:17;20.48;95.11
70271;SHT31;57680;54.292;18.598;2022-08-25T03:44:44;20.48;94.97
70271;SHT31;57680;54.292;18.598;2022-08-25T03:47:09;20.43;95.07
70271;SHT31;57680;54.292;18.598;2022-08-25T03:49:35;20.41;95.07
70271;SHT31;57680;54.292;18.598;2022-08-25T03:52:01;20.36;95.08
70271;SHT31;57680;54.292;18.598;2022-08-25T03:54:26;20.36;95.08
70271;SHT31;57680;54.292;18.598;2022-08-25T03:56:52;20.31;95.10
70271;SHT31;57680;54.292;18.598;2022-08-25T03:59:18;20.29;95.35
70271;SHT31;57680;54.292;18.598;2022-08-25T04:01:46;20.29;95.27
70271;SHT31;57680;54.292;18.598;2022-08-25T04:04:13;20.32;95.24
70271;SHT31;57680;54.292;18.598;2022-08-25T04:06:40;20.32;95.24
70271;SHT31;57680;54.292;18.598;2022-08-25T04:09:07;20.33;95.25
70271;SHT31;57680;54.292;18.598;2022-08-25T04:11:33;20.35;95.32
70271;SHT31;57680;54.292;18.598;2022-08-25T04:14:00;20.39;95.28
70271;SHT31;57680;54.292;18.598;2022-08-25T04:16:32;20.36;95.28
70271;SHT31;57680;54.292;18.598;2022-08-25T04:19:02;20.43;95.28
70271;SHT31;57680;54.292;18.598;2022-08-25T04:21:28;20.46;95.18
70271;SHT31;57680;54.292;18.598;2022-08-25T04:23:55;20.46;95.17
70271;SHT31;57680;54.292;18.598;2022-08-25T04:26:24;20.48;95.26
70271;SHT31;57680;54.292;18.598;2022-08-25T04:28:49;20.51;95.24
70271;SHT31;57680;54.292;18.598;2022-08-25T04:31:16;20.56;95.12
70271;SHT31;57680;54.292;18.598;2022-08-25T04:33:42;20.59;95.17
70271;SHT31;57680;54.292;18.598;2022-08-25T04:36:10;20.65;94.92
70271;SHT31;57680;54.292;18.598;2022-08-25T04:38:37;20.87;94.58
70271;SHT31;57680;54.292;18.598;2022-08-25T04:41:05;20.89;93.97
70271;SHT31;57680;54.292;18.598;2022-08-25T04:43:31;20.94;93.69
70271;SHT31;57680;54.292;18.598;2022-08-25T04:45:57;20.87;93.83
70271;SHT31;57680;54.292;18.598;2022-08-25T04:48:23;20.96;93.36
70271;SHT31;57680;54.292;18.598;2022-08-25T04:50:49;20.97;93.46
70271;SHT31;57680;54.292;18.598;2022-08-25T04:53:16;21.03;93.29
70271;SHT31;57680;54.292;18.598;2022-08-25T04:55:46;21.07;93.20
70271;SHT31;57680;54.292;18.598;2022-08-25T04:58:14;21.20;92.93
70271;SHT31;57680;54.292;18.598;2022-08-25T05:00:41;21.37;92.32
70271;SHT31;57680;54.292;18.598;2022-08-25T05:03:08;21.37;92.53
70271;SHT31;57680;54.292;18.598;2022-08-25T05:05:37;21.38;92.14
70271;SHT31;57680;54.292;18.598;2022-08-25T05:08:04;21.58;91.88
70271;SHT31;57680;54.292;18.598;2022-08-25T05:10:30;21.92;90.41
70271;SHT31;57680;54.292;18.598;2022-08-25T05:12:55;22.41;88.19
70271;SHT31;57680;54.292;18.598;2022-08-25T05:15:21;22.61;86.72
70271;SHT31;57680;54.292;18.598;2022-08-25T05:18:05;22.87;86.61
70271;SHT31;57680;54.292;18.598;2022-08-25T05:20:30;22.74;86.30
70271;SHT31;57680;54.292;18.598;2022-08-25T05:22:56;22.44;87.14
70271;SHT31;57680;54.292;18.598;2022-08-25T05:25:22;22.22;87.78
70271;SHT31;57680;54.292;18.598;2022-08-25T05:27:48;22.44;87.22
70271;SHT31;57680;54.292;18.598;2022-08-25T05:30:14;22.74;86.38
70271;SHT31;57680;54.292;18.598;2022-08-25T05:32:39;23.33;83.09
70271;SHT31;57680;54.292;18.598;2022-08-25T05:35:06;23.73;81.10
70271;SHT31;57680;54.292;18.598;2022-08-25T05:37:32;23.96;80.93
70271;SHT31;57680;54.292;18.598;2022-08-25T05:39:58;24.13;79.56
70271;SHT31;57680;54.292;18.598;2022-08-25T05:42:25;24.11;79.06
70271;SHT31;57680;54.292;18.598;2022-08-25T05:44:52;23.66;80.03
70271;SHT31;57680;54.292;18.598;2022-08-25T05:47:18;23.38;81.06
70271;SHT31;57680;54.292;18.598;2022-08-25T05:49:44;23.19;81.85
70271;SHT31;57680;54.292;18.598;2022-08-25T05:52:09;23.05;82.59
70271;SHT31;57680;54.292;18.598;2022-08-25T05:54:35;22.86;83.41
70271;SHT31;57680;54.292;18.598;2022-08-25T05:57:00;22.75;83.91
70271;SHT31;57680;54.292;18.598;2022-08-25T05:59:26;22.70;84.20
70271;SHT31;57680;54.292;18.598;2022-08-25T06:01:52;23.16;83.05
70271;SHT31;57680;54.292;18.598;2022-08-25T06:04:36;22.98;83.51
70271;SHT31;57680;54.292;18.598;2022-08-25T06:07:01;23.42;82.07
70271;SHT31;57680;54.292;18.598;2022-08-25T06:09:27;23.19;81.38
70271;SHT31;57680;54.292;18.598;2022-08-25T06:11:53;23.46;81.97
70271;SHT31;57680;54.292;18.598;2022-08-25T06:14:18;23.23;81.87
70271;SHT31;57680;54.292;18.598;2022-08-25T06:16:44;23.48;80.90
70271;SHT31;57680;54.292;18.598;2022-08-25T06:19:13;23.59;80.86
70271;SHT31;57680;54.292;18.598;2022-08-25T06:21:39;23.97;79.91
70271;SHT31;57680;54.292;18.598;2022-08-25T06:24:05;24.27;78.81
70271;SHT31;57680;54.292;18.598;2022-08-25T06:26:31;24.38;77.86
70271;SHT31;57680;54.292;18.598;2022-08-25T06:28:57;24.21;77.52
70271;SHT31;57680;54.292;18.598;2022-08-25T06:31:22;23.90;78.82
70271;SHT31;57680;54.292;18.598;2022-08-25T06:33:49;23.71;79.67
70271;SHT31;57680;54.292;18.598;2022-08-25T06:36:14;23.52;80.38
70271;SHT31;57680;54.292;18.598;2022-08-25T06:38:40;23.59;80.28
70271;SHT31;57680;54.292;18.598;2022-08-25T06:41:07;23.49;80.47
70271;SHT31;57680;54.292;18.598;2022-08-25T06:43:35;23.59;80.45
70271;SHT31;57680;54.292;18.598;2022-08-25T06:46:09;23.43;80.46
70271;SHT31;57680;54.292;18.598;2022-08-25T06:48:34;23.74;79.98
70271;SHT31;57680;54.292;18.598;2022-08-25T06:51:04;23.81;79.33
70271;SHT31;57680;54.292;18.598;2022-08-25T06:53:30;23.73;80.45
70271;SHT31;57680;54.292;18.598;2022-08-25T06:55:59;23.56;80.74
70271;SHT31;57680;54.292;18.598;2022-08-25T06:58:24;23.29;80.32
70271;SHT31;57680;54.292;18.598;2022-08-25T07:00:51;22.98;81.44
70271;SHT31;57680;54.292;18.598;2022-08-25T07:03:17;22.87;81.76
70271;SHT31;57680;54.292;18.598;2022-08-25T07:05:53;22.87;81.89
70271;SHT31;57680;54.292;18.598;2022-08-25T07:08:20;22.90;81.15
70271;SHT31;57680;54.292;18.598;2022-08-25T07:10:46;23.21;80.43
70271;SHT31;57680;54.292;18.598;2022-08-25T07:13:12;23.22;80.80
70271;SHT31;57680;54.292;18.598;2022-08-25T07:15:39;23.22;80.10
70271;SHT31;57680;54.292;18.598;2022-08-25T07:18:06;23.14;79.63
70271;SHT31;57680;54.292;18.598;2022-08-25T07:20:33;23.25;80.51
70271;SHT31;57680;54.292;18.598;2022-08-25T07:23:00;23.37;80.41
70271;SHT31;57680;54.292;18.598;2022-08-25T07:25:25;23.26;80.99
70271;SHT31;57680;54.292;18.598;2022-08-25T07:27:51;23.43;80.48
70271;SHT31;57680;54.292;18.598;2022-08-25T07:30:17;23.49;80.09
70271;SHT31;57680;54.292;18.598;2022-08-25T07:32:42;23.55;79.01
70271;SHT31;57680;54.292;18.598;2022-08-25T07:35:08;23.93;77.54
70271;SHT31;57680;54.292;18.598;2022-08-25T07:37:44;23.96;78.59
70271;SHT31;57680;54.292;18.598;2022-08-25T07:40:13;23.90;78.39
70271;SHT31;57680;54.292;18.598;2022-08-25T07:42:39;23.83;78.67
70271;SHT31;57680;54.292;18.598;2022-08-25T07:45:06;23.67;79.34
70271;SHT31;57680;54.292;18.598;2022-08-25T07:47:32;23.66;79.85
70271;SHT31;57680;54.292;18.598;2022-08-25T07:49:58;23.46;78.72
70271;SHT31;57680;54.292;18.598;2022-08-25T07:52:24;23.41;79.81
70271;SHT31;57680;54.292;18.598;2022-08-25T07:54:49;23.35;80.31
70271;SHT31;57680;54.292;18.598;2022-08-25T07:57:18;23.28;80.31
70271;SHT31;57680;54.292;18.598;2022-08-25T07:59:43;23.25;80.66
70271;SHT31;57680;54.292;18.598;2022-08-25T08:02:10;23.28;81.51
70271;SHT31;57680;54.292;18.598;2022-08-25T08:04:36;23.15;81.47
70271;SHT31;57680;54.292;18.598;2022-08-25T08:07:02;23.09;82.26
70271;SHT31;57680;54.292;18.598;2022-08-25T08:09:28;23.05;82.21
70271;SHT31;57680;54.292;18.598;2022-08-25T08:11:55;23.15;82.09
70271;SHT31;57680;54.292;18.598;2022-08-25T08:14:22;23.14;82.50
70271;SHT31;57680;54.292;18.598;2022-08-25T08:16:48;23.26;82.51
70271;SHT31;57680;54.292;18.598;2022-08-25T08:19:17;23.35;82.98
70271;SHT31;57680;54.292;18.598;2022-08-25T08:21:42;23.32;82.50
70271;SHT31;57680;54.292;18.598;2022-08-25T08:24:08;23.22;83.34
70271;SHT31;57680;54.292;18.598;2022-08-25T08:26:34;23.14;83.04
70271;SHT31;57680;54.292;18.598;2022-08-25T08:28:59;23.07;83.61
70271;SHT31;57680;54.292;18.598;2022-08-25T08:31:26;22.87;83.60
70271;SHT31;57680;54.292;18.598;2022-08-25T08:33:54;22.64;84.39
70271;SHT31;57680;54.292;18.598;2022-08-25T08:36:21;22.51;85.11
70271;SHT31;57680;54.292;18.598;2022-08-25T08:38:47;22.36;85.45
70271;SHT31;57680;54.292;18.598;2022-08-25T08:41:39;22.26;85.56
70271;SHT31;57680;54.292;18.598;2022-08-25T08:47:33;22.02;87.02
70271;SHT31;57680;54.292;18.598;2022-08-25T08:56:00;21.72;90.00
70271;SHT31;57680;54.292;18.598;2022-08-25T08:58:39;21.68;90.11
70271;SHT31;57680;54.292;18.598;2022-08-25T09:01:07;21.54;90.71
70271;SHT31;57680;54.292;18.598;2022-08-25T09:03:50;21.47;91.63
70271;SHT31;57680;54.292;18.598;2022-08-25T09:06:43;21.44;91.81
70271;SHT31;57680;54.292;18.598;2022-08-25T09:09:10;21.44;91.92
70271;SHT31;57680;54.292;18.598;2022-08-25T09:15:17;21.40;92.50
70271;SHT31;57680;54.292;18.598;2022-08-25T09:21:11;21.41;92.60
70271;SHT31;57680;54.292;18.598;2022-08-25T09:26:36;21.38;92.91
70271;SHT31;57680;54.292;18.598;2022-08-25T09:29:07;21.38;92.87
70271;SHT31;57680;54.292;18.598;2022-08-25T09:31:40;21.34;93.35
70271;SHT31;57680;54.292;18.598;2022-08-25T09:34:11;21.35;93.45
70271;SHT31;57680;54.292;18.598;2022-08-25T09:36:37;21.50;93.29
70271;SHT31;57680;54.292;18.598;2022-08-25T09:39:04;21.51;92.47
70271;SHT31;57680;54.292;18.598;2022-08-25T09:41:42;21.48;93.29
70271;SHT31;57680;54.292;18.598;2022-08-25T09:44:32;21.42;92.93
70271;SHT31;57680;54.292;18.598;2022-08-25T09:47:00;21.47;93.06
70271;SHT31;57680;54.292;18.598;2022-08-25T09:49:39;21.50;93.08
70271;SHT31;57680;54.292;18.598;2022-08-25T09:52:34;21.47;92.88
70271;SHT31;57680;54.292;18.598;2022-08-25T09:55:25;21.52;93.38
70271;SHT31;57680;54.292;18.598;2022-08-25T09:57:54;21.66;92.37
70271;SHT31;57680;54.292;18.598;2022-08-25T10:00:31;21.72;91.71
70271;SHT31;57680;54.292;18.598;2022-08-25T10:05:30;21.90;91.32
70271;SHT31;57680;54.292;18.598;2022-08-25T10:08:10;22.05;91.20
70271;SHT31;57680;54.292;18.598;2022-08-25T10:10:42;22.16;90.39
70271;SHT31;57680;54.292;18.598;2022-08-25T10:13:18;22.16;90.34
70271;SHT31;57680;54.292;18.598;2022-08-25T10:15:45;22.35;89.83
70271;SHT31;57680;54.292;18.598;2022-08-25T10:18:39;22.68;88.29
70271;SHT31;57680;54.292;18.598;2022-08-25T10:23:35;23.01;86.71
70271;SHT31;57680;54.292;18.598;2022-08-25T10:26:07;22.94;86.35
70271;SHT31;57680;54.292;18.598;2022-08-25T10:29:09;22.91;86.25
70271;SHT31;57680;54.292;18.598;2022-08-25T10:39:40;23.30;84.63
70271;SHT31;57680;54.292;18.598;2022-08-25T10:45:02;23.23;84.48
70271;SHT31;57680;54.292;18.598;2022-08-25T11:01:42;23.66;82.82
70271;SHT31;57680;54.292;18.598;2022-08-25T11:06:48;23.69;82.46
70271;SHT31;57680;54.292;18.598;2022-08-25T11:09:20;23.67;82.04
70271;SHT31;57680;54.292;18.598;2022-08-25T11:11:52;23.81;81.79
70271;SHT31;57680;54.292;18.598;2022-08-25T11:14:39;23.84;81.90
70271;SHT31;57680;54.292;18.598;2022-08-25T11:17:23;23.92;81.62
70271;SHT31;57680;54.292;18.598;2022-08-25T11:19:56;24.13;80.57
70271;SHT31;57680;54.292;18.598;2022-08-25T11:22:44;24.04;80.66
70271;SHT31;57680;54.292;18.598;2022-08-25T11:25:30;24.11;81.11
70271;SHT31;57680;54.292;18.598;2022-08-25T11:28:13;24.28;81.02
70271;SHT31;57680;54.292;18.598;2022-08-25T11:30:41;24.27;80.42
70271;SHT31;57680;54.292;18.598;2022-08-25T11:33:15;24.24;80.32
70271;SHT31;57680;54.292;18.598;2022-08-25T11:35:45;24.20;80.27
70271;SHT31;57680;54.292;18.598;2022-08-25T11:41:26;24.10;80.71
70271;SHT31;57680;54.292;18.598;2022-08-25T11:44:32;24.32;80.16
70271;SHT31;57680;54.292;18.598;2022-08-25T11:55:14;24.06;80.69
70271;SHT31;57680;54.292;18.598;2022-08-25T11:57:42;24.01;80.48
70271;SHT31;57680;54.292;18.598;2022-08-25T12:00:40;24.06;80.90
70271;SHT31;57680;54.292;18.598;2022-08-25T12:08:51;24.49;78.82
70271;SHT31;57680;54.292;18.598;2022-08-25T12:17:11;24.04;79.70
70271;SHT31;57680;54.292;18.598;2022-08-25T12:30:07;23.73;81.27
70271;SHT31;57680;54.292;18.598;2022-08-25T12:33:00;23.81;81.79
70271;SHT31;57680;54.292;18.598;2022-08-25T12:41:10;23.60;82.30
70271;SHT31;57680;54.292;18.598;2022-08-25T12:43:41;23.65;81.70
70271;SHT31;57680;54.292;18.598;2022-08-25T12:49:27;23.56;81.68
70271;SHT31;57680;54.292;18.598;2022-08-25T12:54:46;23.50;82.28
70271;SHT31;57680;54.292;18.598;2022-08-25T13:00:13;23.37;83.23
70271;SHT31;57680;54.292;18.598;2022-08-25T13:05:57;23.14;83.70
70271;SHT31;57680;54.292;18.598;2022-08-25T13:16:29;22.97;85.73
70271;SHT31;57680;54.292;18.598;2022-08-25T13:18:56;23.02;84.81
70271;SHT31;57680;54.292;18.598;2022-08-25T13:21:40;23.08;84.61
70271;SHT31;57680;54.292;18.598;2022-08-25T13:24:20;23.15;84.43
70271;SHT31;57680;54.292;18.598;2022-08-25T13:26:50;23.26;84.13
70271;SHT31;57680;54.292;18.598;2022-08-25T13:29:23;23.52;83.40
70271;SHT31;57680;54.292;18.598;2022-08-25T13:34:20;24.04;81.84
70271;SHT31;57680;54.292;18.598;2022-08-25T13:36:48;24.04;81.34
70271;SHT31;57680;54.292;18.598;2022-08-25T13:39:34;24.13;80.94
70271;SHT31;57680;54.292;18.598;2022-08-25T13:42:05;23.99;81.06
70271;SHT31;57680;54.292;18.598;2022-08-25T13:44:36;23.73;81.99
70271;SHT31;57680;54.292;18.598;2022-08-25T13:47:14;23.66;82.36
70271;SHT31;57680;54.292;18.598;2022-08-25T13:49:43;23.70;82.82
70271;SHT31;57680;54.292;18.598;2022-08-25T13:52:25;23.81;81.66
70271;SHT31;57680;54.292;18.598;2022-08-25T13:54:57;23.77;81.81
70271;SHT31;57680;54.292;18.598;2022-08-25T13:57:26;23.66;82.17
70271;SHT31;57680;54.292;18.598;2022-08-25T14:00:00;23.66;82.51
70271;SHT31;57680;54.292;18.598;2022-08-25T14:05:11;23.43;82.91
70271;SHT31;57680;54.292;18.598;2022-08-25T14:07:38;23.50;82.91
70271;SHT31;57680;54.292;18.598;2022-08-25T14:10:10;23.55;82.51
70271;SHT31;57680;54.292;18.598;2022-08-25T14:12:44;23.67;81.97
70271;SHT31;57680;54.292;18.598;2022-08-25T14:18:16;23.59;81.99
70271;SHT31;57680;54.292;18.598;2022-08-25T14:20:36;23.52;82.66
70271;SHT31;57680;54.292;18.598;2022-08-25T14:23:15;23.45;82.10
70271;SHT31;57680;54.292;18.598;2022-08-25T14:25:41;23.37;82.96
70271;SHT31;57680;54.292;18.598;2022-08-25T14:28:14;23.35;83.51
70271;SHT31;57680;54.292;18.598;2022-08-25T14:30:44;23.26;83.95
70271;SHT31;57680;54.292;18.598;2022-08-25T14:33:10;23.15;84.00
70271;SHT31;57680;54.292;18.598;2022-08-25T14:35:36;23.12;83.90
70271;SHT31;57680;54.292;18.598;2022-08-25T14:38:07;23.14;84.31
70271;SHT31;57680;54.292;18.598;2022-08-25T14:40:34;23.11;83.99
70271;SHT31;57680;54.292;18.598;2022-08-25T14:42:59;23.01;83.90
70271;SHT31;57680;54.292;18.598;2022-08-25T14:45:25;22.99;84.16
70271;SHT31;57680;54.292;18.598;2022-08-25T14:47:51;22.92;84.21
70271;SHT31;57680;54.292;18.598;2022-08-25T14:50:17;22.92;84.31
70271;SHT31;57680;54.292;18.598;2022-08-25T14:52:43;23.02;84.34
70271;SHT31;57680;54.292;18.598;2022-08-25T14:55:09;23.08;84.22
70271;SHT31;57680;54.292;18.598;2022-08-25T14:57:35;23.02;84.64
70271;SHT31;57680;54.292;18.598;2022-08-25T15:00:02;22.99;84.65
70271;SHT31;57680;54.292;18.598;2022-08-25T15:02:29;23.01;84.56
70271;SHT31;57680;54.292;18.598;2022-08-25T15:04:58;22.91;84.20
70271;SHT31;57680;54.292;18.598;2022-08-25T15:07:25;22.87;84.35
70271;SHT31;57680;54.292;18.598;2022-08-25T15:10:10;22.81;84.70
70271;SHT31;57680;54.292;18.598;2022-08-25T15:12:35;22.71;84.93
70271;SHT31;57680;54.292;18.598;2022-08-25T15:15:01;22.68;85.58
70271;SHT31;57680;54.292;18.598;2022-08-25T15:17:28;22.60;86.03
70271;SHT31;57680;54.292;18.598;2022-08-25T15:19:53;22.50;86.52
70271;SHT31;57680;54.292;18.598;2022-08-25T15:22:19;22.41;86.91
70271;SHT31;57680;54.292;18.598;2022-08-25T15:24:45;22.35;87.23
70271;SHT31;57680;54.292;18.598;2022-08-25T15:27:10;22.29;87.44
70271;SHT31;57680;54.292;18.598;2022-08-25T15:29:37;22.29;87.67
70271;SHT31;57680;54.292;18.598;2022-08-25T15:32:06;22.29;87.94
70271;SHT31;57680;54.292;18.598;2022-08-25T15:34:33;22.35;87.20
70271;SHT31;57680;54.292;18.598;2022-08-25T15:37:12;22.35;87.20
70271;SHT31;57680;54.292;18.598;2022-08-25T15:39:40;22.39;86.95
70271;SHT31;57680;54.292;18.598;2022-08-25T15:42:07;22.32;87.09
70271;SHT31;57680;54.292;18.598;2022-08-25T15:44:34;22.32;87.16
70271;SHT31;57680;54.292;18.598;2022-08-25T15:46:59;22.35;87.39
70271;SHT31;57680;54.292;18.598;2022-08-25T15:49:26;22.29;87.40
70271;SHT31;57680;54.292;18.598;2022-08-25T15:51:53;22.26;87.71
70271;SHT31;57680;54.292;18.598;2022-08-25T15:54:20;22.23;87.77
70271;SHT31;57680;54.292;18.598;2022-08-25T15:56:46;22.19;87.55
70271;SHT31;57680;54.292;18.598;2022-08-25T15:59:12;22.19;87.74
70271;SHT31;57680;54.292;18.598;2022-08-25T16:01:38;22.12;87.64
70271;SHT31;57680;54.292;18.598;2022-08-25T16:04:04;22.08;87.76
70271;SHT31;57680;54.292;18.598;2022-08-25T16:06:30;22.03;88.14
70271;SHT31;57680;54.292;18.598;2022-08-25T16:08:55;21.96;88.31
70271;SHT31;57680;54.292;18.598;2022-08-25T16:11:27;21.89;88.60
70271;SHT31;57680;54.292;18.598;2022-08-25T16:13:53;21.83;89.01
70271;SHT31;57680;54.292;18.598;2022-08-25T16:16:21;21.83;88.96
70271;SHT31;57680;54.292;18.598;2022-08-25T16:18:48;21.83;88.98
70271;SHT31;57680;54.292;18.598;2022-08-25T16:21:18;21.78;89.30
70271;SHT31;57680;54.292;18.598;2022-08-25T16:23:44;21.78;89.27
70271;SHT31;57680;54.292;18.598;2022-08-25T16:26:10;21.77;89.14
70271;SHT31;57680;54.292;18.598;2022-08-25T16:28:39;21.72;89.37
70271;SHT31;57680;54.292;18.598;2022-08-25T16:31:08;21.74;89.21
70271;SHT31;57680;54.292;18.598;2022-08-25T16:33:34;21.68;89.35
70271;SHT31;57680;54.292;18.598;2022-08-25T16:36:05;21.66;89.47
70271;SHT31;57680;54.292;18.598;2022-08-25T16:38:31;21.62;89.68
70271;SHT31;57680;54.292;18.598;2022-08-25T16:40:56;21.63;89.62
70271;SHT31;57680;54.292;18.598;2022-08-25T16:43:22;21.61;89.42
70271;SHT31;57680;54.292;18.598;2022-08-25T16:46:01;21.63;89.43
70271;SHT31;57680;54.292;18.598;2022-08-25T16:48:27;21.61;89.50
70271;SHT31;57680;54.292;18.598;2022-08-25T16:50:53;21.57;89.66
70271;SHT31;57680;54.292;18.598;2022-08-25T16:53:19;21.59;89.77
70271;SHT31;57680;54.292;18.598;2022-08-25T16:56:04;21.54;90.12
70271;SHT31;57680;54.292;18.598;2022-08-25T16:58:30;21.50;90.54
70271;SHT31;57680;54.292;18.598;2022-08-25T17:01:07;21.48;90.61
70271;SHT31;57680;54.292;18.598;2022-08-25T17:03:34;21.47;90.81
70271;SHT31;57680;54.292;18.598;2022-08-25T17:06:00;21.44;91.02
70271;SHT31;57680;54.292;18.598;2022-08-25T17:08:26;21.47;91.10
70271;SHT31;57680;54.292;18.598;2022-08-25T17:11:10;21.42;91.26
70271;SHT31;57680;54.292;18.598;2022-08-25T17:13:38;21.41;91.17
70271;SHT31;57680;54.292;18.598;2022-08-25T17:16:04;21.41;91.17
70271;SHT31;57680;54.292;18.598;2022-08-25T17:18:31;21.41;90.99
70271;SHT31;57680;54.292;18.598;2022-08-25T17:21:07;21.37;91.14
70271;SHT31;57680;54.292;18.598;2022-08-25T17:23:35;21.34;91.28
70271;SHT31;57680;54.292;18.598;2022-08-25T17:26:02;21.31;91.39
70271;SHT31;57680;54.292;18.598;2022-08-25T17:28:28;21.31;91.50